Hele On Kaka'ako 5K

Overall Finish List

May 12, 2013


Results By Time Line www.TimeLineHawaii.com

Run

Place Name City Bib No Age Gender Age Group Total Time Pace
1 ASH DUSTOW 392 55 M 1 Top Fin 18:16.3 5:54/M
2 TYLER SMITH HONOLULU HI 348 30 M 2 Top Fin 19:47.7 6:23/M
3 THOMAS SCAFFIDI KAPOLEI HI 288 24 M 3 Top Fin 19:56.7 6:26/M
4 WAYNE BALDWIN 396 29 M 1 25-29 20:56.6 6:45/M
5 DAVID WILLIAMS RENO NV 364 52 M 1 50-54 20:58.0 6:46/M
6 LUKE DEKNEEF 401 28 M 2 25-29 21:01.4 6:47/M
7 SARAH JACKSON EWA BEACH HI 324 22 F 1 Top Fin 21:03.1 6:47/M
8 DANNY GUERPO KAMUELA HI 314 48 M 1 45-49 21:08.9 6:49/M
9 ROBERT LEUIRER 403 26 M 3 25-29 22:12.7 7:10/M
10 LISA GONZALES-GILE EDWARDS CO 355 55 F 2 Top Fin 22:14.4 7:10/M
11 DAN MAY HONOLULU HI 367 35 M 1 35-39 22:19.1 7:12/M
12 KYRA OKAZAKI HONOLULU HI 385 30 F 3 Top Fin 22:49.4 7:22/M
13 JOY LAM HONOLULU HI 354 41 F 1 40-44 22:52.6 7:23/M
14 DYLAN PALUMBO HONOLULU HI 317 10 M 1 10-14 24:10.5 7:48/M
15 KYOUNG LEE BRONX NY 284 43 F 2 40-44 24:23.3 7:52/M
16 LOREN MCMILLEN HONOLULU HI 344 36 F 1 35-39 24:23.6 7:52/M
17 KELII BANDMANN 402 38 M 2 35-39 24:26.5 7:53/M
18 MIKE YUEN HONOLULU HI 343 33 M 1 30-34 24:47.9 8:00/M
19 JUSTIN MARRIOTT WAHIAWA 358 14 M 2 10-14 25:02.0 8:05/M
20 AMBER DRISCOLL HONOLULU HI 329 31 F 1 30-34 25:13.0 8:08/M
21 KATIE HASHIMOTO 404 12 F 1 10-14 25:26.7 8:12/M
22 ROBERT ALSUP WAHIAWA HI 312 45 M 2 45-49 25:32.2 8:14/M
23 KRISTAL PARKER CHICAGO IL 320 30 F 2 30-34 25:39.8 8:16/M
24 KYLE SASAKI 395 39 M 3 35-39 25:47.1 8:19/M
25 KELLY COOPER 389 31 F 3 30-34 25:49.3 8:20/M
26 DONALD CABRERA PEARL CITY HI 306 49 M 3 45-49 25:56.0 8:22/M
27 CONNIE CASSIDY EWA BEACH HI 303 31 F 4 30-34 26:09.1 8:26/M
28 LOUIE CATANESE HONOLULU HI 349 25 M 4 25-29 26:14.1 8:28/M
29 ROSEMARIE TAN HONOLULU HI 342 31 F 5 30-34 26:49.8 8:39/M
30 GINA CABRERA PEARL CITY HI 305 42 F 3 40-44 26:50.6 8:39/M
31 CONNER PALUMBO HONOLULU HI 318 8 M 1 0- 9 26:52.1 8:40/M
32 DANIEL PALUMBO HONOLULU HI 316 35 M 4 35-39 27:17.6 8:48/M
33 JERRY MCCOY MILILANI HI 339 48 M 4 45-49 28:04.6 9:03/M
34 SYLVIA BROSIEN HONOLULU HI 334 48 F 1 45-49 28:18.2 9:08/M
35 KEALAONAPUA OSULLIVAN 394 26 F 1 25-29 28:23.3 9:09/M
36 JEANNELE MACEY HONOLULU HI 386 34 F 6 30-34 28:44.2 9:16/M
37 RICKY MARTIN PENSACOLA FL 286 55 M 1 55-59 29:14.6 9:26/M
38 NATHAN HINOJOSA AUSTIN TX 297 29 M 5 25-29 29:16.3 9:26/M
39 JOLENE HIGA AUSTIN TX 296 27 F 2 25-29 29:16.7 9:26/M
40 CHRISTINA VU HONOLULU HI 380 62 F 1 60-64 29:23.1 9:29/M
41 JENNIFER HARTLE SARATOGA SPRINGS UT 304 29 F 3 25-29 29:44.0 9:35/M
42 MASON HARTLE 393 8 M 2 0- 9 29:46.7 9:36/M
43 JULIA KRAMPE WAHIAWA HI 301 36 F 2 35-39 30:00.9 9:41/M
44 LESTER MURAOKA HONOLULU HI 379 68 M 1 65-69 30:01.5 9:41/M
45 KATE BALDWIN 397 27 F 4 25-29 30:07.5 9:43/M
46 ANTHONY WALLACE HONOLULU HI 323 13 M 3 10-14 30:17.6 9:46/M
47 DEANA TAPUELUELU FARMINGTON UT 282 24 F 1 20-24 30:58.5 9:59/M
48 JUSTIN LAKE 357 13 M 4 10-14 30:59.5 10:00/M
49 SIO TAPUELUELU FARMINGTON UT 283 29 M 6 25-29 31:06.1 10:02/M
50 SHANNON VALLEE HONOLULU HI 295 41 F 4 40-44 31:09.9 10:03/M
51 CARLY FETHEROLF HONOLULU HI 298 29 F 5 25-29 31:20.9 10:06/M
52 ALLYN FETHEROLF HONOLULU HI 299 31 M 2 30-34 31:22.0 10:07/M
53 ARTURO GUIEB, JR 399 29 M 7 25-29 31:44.8 10:14/M
54 MALYNNE SIMEON 400 29 F 6 25-29 31:45.4 10:15/M
55 CHASE KUROKAWA 409 23 M 1 20-24 32:18.0 10:25/M
56 LAURIE BROOKSHIRE MILLBROOK AL 290 37 F 3 35-39 32:32.9 10:30/M
57 CADENCE DRISCOLL HONOLULU HI 371 10 F 2 10-14 32:35.0 10:31/M
58 JESSICA SCAFFIDI KAPOLEI HI 287 24 F 2 20-24 32:37.3 10:31/M
59 LIBERTY MARRIOTT WAHIAWA HI 281 48 F 2 45-49 33:14.8 10:43/M
60 SIRENA SPURRIER 368 11 F 3 10-14 33:20.4 10:45/M
61 JESSICA SPURRIER KANEOHE HI 333 44 F 5 40-44 33:20.7 10:45/M
62 KATHERINE HIU HONOLULU HI 337 19 F 1 15-19 33:22.5 10:46/M
63 ASHLEY KAWABATA-BONIN HONOLULU HI 340 19 F 2 15-19 33:23.2 10:46/M
64 GILBERT LAGUATAN WAIPAHU HI 294 57 M 2 55-59 34:09.0 11:01/M
65 ANGELA UYEDA HONOLULU HI 377 9 F 1 0- 9 34:19.4 11:04/M
66 KELLY UYEDA HONOLULU HI 350 34 F 7 30-34 34:19.8 11:04/M
67 SHERINA ALI EWA BEACH HI 322 38 F 4 35-39 35:01.4 11:18/M
68 AMBER JAMES HONOLULU HI 321 33 F 8 30-34 35:09.8 11:20/M
69 DRAVEN MAY 387 11 M 5 10-14 35:49.9 11:33/M
70 ASHLEIGH IVY EWA BEACH HI 308 12 F 4 10-14 36:14.8 11:41/M
71 RAVEN THOMAS EWA BEACH HI 335 26 F 7 25-29 36:17.5 11:42/M
72 MICCAH MILLER KANEOHE HI 291 32 F 9 30-34 36:47.4 11:52/M
73 BARRY MILLER KANEOHE HI 292 32 M 3 30-34 36:48.1 11:52/M
74 ATSUSHI KUMAGAI HONOLULU HI 325 51 M 2 50-54 37:06.2 11:58/M
75 STEPHANIE IVY EWA BEACH HI 307 41 F 6 40-44 37:10.1 11:59/M
76 JACQUELINE NG-OSORIO HONOLULU HI 383 36 F 5 35-39 37:51.9 12:13/M
77 TOMOMI NIES HONOLULU HI 341 36 F 6 35-39 37:56.9 12:14/M
78 KANEALII NG-OSORIO HONOLULU HI 381 37 M 5 35-39 38:11.9 12:19/M
79 NOEL RYSAVY HONOLULU HI 326 32 F 10 30-34 38:14.1 12:20/M
80 JERRY MCCOY 373 8 M 3 0- 9 38:32.0 12:26/M
81 MARIA MARTINEZ MILILANI HI 338 36 F 7 35-39 38:33.2 12:26/M
82 GABY JELFFS HONOLULU HI 352 16 F 3 15-19 38:44.6 12:30/M
83 ADRIAN JELFFS HONOLULU HI 351 38 M 6 35-39 38:45.5 12:30/M
84 AIMEE DIGERONIMO HONOLULU HI 330 32 F 11 30-34 39:42.1 12:48/M
85 TANYA LAGUATAN WAIPAHU HI 293 57 F 1 55-59 40:03.6 12:55/M
86 SAMANTHA BUOYE 376 3 F 2 0- 9 40:17.0 13:00/M
87 CHRISTOPHER BUOYE EWA BEACH HI 336 39 M 7 35-39 40:17.6 13:00/M
88 DAVID BROOKSHIRE MILLBROOK AL 289 35 M 8 35-39 40:21.3 13:01/M
89 DANIELLE SHROCK SPRINGTOWN TX 378 40 F 7 40-44 40:24.2 13:02/M
90 SHAE KUROKAWA 410 12 F 5 10-14 41:03.5 13:15/M
91 KAREN DUFFY GLENDORA CA 365 44 F 8 40-44 42:30.5 13:43/M
92 DONOVAN MAY 388 9 M 4 0- 9 45:53.4 14:48/M
93 WILL EBERLEIN AIEA HI 347 8 M 5 0- 9 46:42.2 15:04/M
94 JEN EBERLEIN AIEA HI 345 43 F 9 40-44 46:42.9 15:04/M
95 CHRIS EBERLEIN 372 6 M 6 0- 9 46:44.0 15:05/M
96 MIKE EBERLEIN AIEA HI 346 38 M 9 35-39 46:44.6 15:05/M
97 SUSAN NAKAGAWA HONOLULU HI 311 43 F 10 40-44 47:06.0 15:12/M
98 NOELLE NAKAGAWA HONOLULU HI 332 7 F 3 0- 9 47:07.2 15:12/M
99 SAGE FOSNOCK 363 9 F 4 0- 9 47:16.7 15:15/M
100 MARGARET FOSNOCK HONOLULU HI 362 42 F 11 40-44 47:17.6 15:15/M
 
Place Name City Bib No Age Gender Age Group Total Time Pace
101 REBECCA ALSUP WAHIAWA HI 313 40 F 12 40-44 48:30.2 15:39/M
102 NICOLE NAKAGAWA 359 9 F 5 0- 9 48:58.7 15:48/M
103 SCOTT NAKAGAWA HONOLULU HI 331 48 M 5 45-49 48:59.7 15:48/M
104 TERESA QUINIOLA KANEOHE HI 327 33 F 12 30-34 54:03.1 17:26/M
105 AMELIA KACENA KANEOHE HI 328 62 F 2 60-64 54:28.6 17:34/M
106 LIZ MAY HONOLULU HI 366 40 F 13 40-44 54:50.4 17:41/M
107 LORAINE CARLSON 398 62 F 3 60-64 1:01:41.8 19:54/M